Time;durP1;ratioP1;P1;durP2;ratioP2;P2;SDS_P1;SDS_P2;PMS_P1;PMS_P2;Temp;Humidity;BMP_temperature;BMP_pressure;BME280_temperature;BME280_humidity;BME280_pressure;Samples;Min_cycle;Max_cycle;Signal;HPM_P1;HPM_P2
2023/02/26 00:03:11;;;;;;;2.10;1.90;;;;;;;-1.40;100.00;99349.22;10337527;28;20038;-71
2023/02/26 00:08:12;;;;;;;5.75;1.88;;;;;;;-1.41;100.00;99359.53;10337483;28;20180;-71
2023/02/26 00:13:14;;;;;;;5.30;2.40;;;;;;;-1.42;100.00;99362.94;10336985;28;20459;-71
2023/02/26 00:18:17;;;;;;;2.42;2.20;;;;;;;-1.43;100.00;99377.53;10336506;28;20042;-71
2023/02/26 00:23:19;;;;;;;1.83;1.73;;;;;;;-1.38;100.00;99375.00;10337157;28;20038;-71
2023/02/26 00:28:21;;;;;;;2.72;2.33;;;;;;;-1.58;100.00;99382.63;10336052;28;20066;-71
2023/02/26 00:33:23;;;;;;;2.13;1.90;;;;;;;-1.64;100.00;99387.72;10335100;28;20046;-71
2023/02/26 00:38:33;;;;;;;2.33;1.50;;;;;;;-1.48;100.00;99388.69;10318850;28;20511;-71
2023/02/26 00:43:35;;;;;;;1.52;1.42;;;;;;;-1.45;100.00;99397.31;10334736;28;20097;-71
2023/02/26 00:48:55;;;;;;;1.88;1.50;;;;;;;-1.59;100.00;99392.06;10336809;28;20042;-71
2023/02/26 00:54:09;;;;;;;2.05;1.45;;;;;;;-1.63;100.00;99387.75;10317532;28;20046;-71
2023/02/26 00:59:11;;;;;;;2.50;1.48;;;;;;;-1.49;100.00;99393.00;10317629;28;20112;-70
2023/02/26 01:04:14;;;;;;;3.38;1.65;;;;;;;-1.61;100.00;99398.91;10336137;28;20046;-71
2023/02/26 01:09:26;;;;;;;2.35;1.95;;;;;;;-1.63;100.00;99399.78;10318475;28;20074;-71
2023/02/26 01:14:31;;;;;;;1.50;1.40;;;;;;;-1.58;100.00;99403.25;10335666;28;20556;-71
2023/02/26 01:19:44;;;;;;;1.70;1.45;;;;;;;-1.50;100.00;99400.72;10333218;28;20137;-71
2023/02/26 01:24:58;;;;;;;1.70;1.60;;;;;;;-1.60;100.00;99405.78;10333127;28;20145;-71
2023/02/26 01:30:00;;;;;;;2.03;1.73;;;;;;;-1.64;100.00;99408.34;10335415;28;20121;-71
2023/02/26 01:35:14;;;;;;;2.20;1.77;;;;;;;-1.73;100.00;99403.09;10334051;28;20050;-71
2023/02/26 01:40:18;;;;;;;2.58;1.95;;;;;;;-1.68;100.00;99414.31;10334234;28;20042;-71
2023/02/26 01:45:30;;;;;;;1.92;1.65;;;;;;;-1.52;100.00;99413.56;10396516;22;20040;-73
2023/02/26 01:50:37;;;;;;;2.33;2.13;;;;;;;-1.55;100.00;99422.16;10460112;28;20152;-73
2023/02/26 01:55:43;;;;;;;2.40;1.98;;;;;;;-1.55;100.00;99424.75;10441192;28;20099;-72
2023/02/26 02:00:44;;;;;;;2.60;2.40;;;;;;;-1.68;100.00;99438.41;10440430;28;20110;-73
2023/02/26 02:05:51;;;;;;;3.05;2.75;;;;;;;-1.59;100.00;99448.78;10441184;28;20469;-72
2023/02/26 02:10:53;;;;;;;2.63;2.43;;;;;;;-1.55;100.00;99460.84;10459793;28;20554;-74
2023/02/26 02:16:03;;;;;;;2.72;2.53;;;;;;;-1.56;100.00;99456.50;10458613;28;20078;-73
2023/02/26 02:21:36;;;;;;;2.65;2.35;;;;;;;-1.59;100.00;99465.94;10457616;28;20056;-73
2023/02/26 02:27:02;;;;;;;3.08;2.45;;;;;;;-1.46;100.00;99466.88;10457013;28;20083;-73
2023/02/26 02:32:13;;;;;;;3.23;3.03;;;;;;;-1.64;100.00;99481.38;10461299;28;20041;-72
2023/02/26 02:37:43;;;;;;;3.05;2.40;;;;;;;-1.53;100.00;99487.47;10466394;28;20120;-74
2023/02/26 02:42:58;;;;;;;3.75;2.78;;;;;;;-1.38;100.00;99493.59;10448036;28;20041;-73
2023/02/26 02:48:11;;;;;;;3.55;3.25;;;;;;;-1.44;100.00;99498.72;10447499;28;20111;-72
2023/02/26 02:53:19;;;;;;;3.03;2.60;;;;;;;-1.48;100.00;99512.41;10447775;28;20050;-73
2023/02/26 02:58:28;;;;;;;2.70;2.50;;;;;;;-1.33;100.00;99515.09;10430047;28;20051;-72
2023/02/26 03:03:51;;;;;;;3.17;2.85;;;;;;;-1.35;100.00;99529.72;10446273;28;20418;-73
2023/02/26 03:08:53;;;;;;;3.97;2.90;;;;;;;-1.37;100.00;99524.56;10464021;28;20041;-72
2023/02/26 03:13:55;;;;;;;4.00;3.70;;;;;;;-1.41;100.00;99540.84;10463297;28;20540;-74
2023/02/26 03:19:39;;;;;;;5.75;3.75;;;;;;;-1.45;100.00;99549.41;10444887;28;20135;-73
2023/02/26 03:24:51;;;;;;;4.55;4.10;;;;;;;-1.31;100.00;99549.50;10423174;28;20053;-74
2023/02/26 03:29:55;;;;;;;4.57;4.18;;;;;;;-1.32;100.00;99563.25;10444826;28;20049;-74
2023/02/26 03:35:04;;;;;;;4.15;3.75;;;;;;;-1.36;100.00;99564.94;10445262;28;20060;-73
2023/02/26 03:40:12;;;;;;;4.75;4.00;;;;;;;-1.35;100.00;99574.41;10445959;28;20083;-73
2023/02/26 03:45:25;;;;;;;3.95;3.75;;;;;;;-1.27;100.00;99582.22;10445790;28;20045;-74
2023/02/26 03:50:40;;;;;;;4.18;3.88;;;;;;;-1.24;100.00;99602.84;10464456;28;20116;-75
2023/02/26 03:56:20;;;;;;;4.93;4.13;;;;;;;-1.18;100.00;99605.50;10456413;28;20049;-73
2023/02/26 04:01:45;;;;;;;4.60;4.22;;;;;;;-1.29;100.00;99614.84;10413214;28;20049;-74
2023/02/26 04:06:52;;;;;;;4.32;3.97;;;;;;;-1.30;100.00;99613.13;10446671;28;20069;-73
2023/02/26 04:11:57;;;;;;;3.97;3.60;;;;;;;-1.28;100.00;99620.03;10446650;28;20452;-74
2023/02/26 04:16:59;;;;;;;3.92;3.63;;;;;;;-1.12;100.00;99627.88;10428460;28;20045;-74
2023/02/26 04:22:01;;;;;;;3.70;3.40;;;;;;;-1.28;100.00;99637.22;10445016;28;20041;-73
2023/02/26 04:27:03;;;;;;;3.70;3.40;;;;;;;-1.34;100.00;99639.72;10463107;28;20546;-73
2023/02/26 04:32:06;;;;;;;4.07;3.25;;;;;;;-1.28;100.00;99657.84;10428583;28;20079;-74
2023/02/26 04:37:08;;;;;;;4.53;2.88;;;;;;;-1.13;100.00;99663.13;10462098;28;20071;-73
2023/02/26 04:42:11;;;;;;;2.70;2.50;;;;;;;-0.97;100.00;99671.00;10426317;28;20044;-73
2023/02/26 04:47:13;;;;;;;5.32;2.55;;;;;;;-1.11;100.00;99668.31;10442420;28;20057;-73
2023/02/26 04:52:15;;;;;;;2.65;2.40;;;;;;;-1.00;100.00;99673.59;10442911;28;20045;-74
2023/02/26 04:57:18;;;;;;;4.72;3.05;;;;;;;-1.12;100.00;99685.50;10443605;28;20048;-74
2023/02/26 05:02:19;;;;;;;3.22;2.50;;;;;;;-1.02;100.00;99696.75;10427199;28;20045;-74
2023/02/26 05:07:24;;;;;;;3.28;1.63;;;;;;;-0.90;100.00;99704.63;10443699;28;20442;-73
2023/02/26 05:12:26;;;;;;;2.22;1.65;;;;;;;-1.12;100.00;99713.88;10443683;28;20037;-73
2023/02/26 05:17:27;;;;;;;3.42;1.88;;;;;;;-1.12;100.00;99711.28;10462716;28;20474;-73
2023/02/26 05:22:29;;;;;;;3.83;2.10;;;;;;;-1.12;100.00;99718.16;10443039;28;20049;-73
2023/02/26 05:27:31;;;;;;;4.50;2.88;;;;;;;-1.17;100.00;99718.13;10442563;28;20045;-73
2023/02/26 05:32:33;;;;;;;5.13;2.85;;;;;;;-1.11;100.00;99733.66;10459358;28;20422;-72
2023/02/26 05:37:35;;;;;;;3.53;2.20;;;;;;;-1.05;100.00;99741.47;10441991;28;20044;-74
2023/02/26 05:42:38;;;;;;;2.97;2.40;;;;;;;-1.16;100.00;99742.19;10442312;28;20067;-73
2023/02/26 05:47:40;;;;;;;5.10;2.80;;;;;;;-1.28;100.00;99758.41;10460991;28;20037;-73
2023/02/26 05:52:42;;;;;;;3.55;2.80;;;;;;;-1.18;100.00;99769.69;10461237;28;20049;-73
2023/02/26 05:57:43;;;;;;;3.42;3.13;;;;;;;-1.25;100.00;99776.47;10442175;28;20099;-73
2023/02/26 06:02:45;;;;;;;4.22;3.75;;;;;;;-1.32;100.00;99783.28;10443336;28;20041;-74
2023/02/26 06:07:47;;;;;;;5.22;4.72;;;;;;;-1.12;100.00;99790.38;10449461;28;20441;-73
2023/02/26 06:12:49;;;;;;;5.28;4.70;;;;;;;-1.17;100.00;99798.06;10450788;28;20441;-72
2023/02/26 06:17:50;;;;;;;6.03;4.93;;;;;;;-1.27;100.00;99803.97;10468072;28;20441;-73
2023/02/26 06:22:52;;;;;;;4.63;3.75;;;;;;;-1.27;100.00;99810.00;10468751;28;20041;-73
2023/02/26 06:27:54;;;;;;;3.63;3.30;;;;;;;-1.17;100.00;99823.00;10472211;28;20041;-73
2023/02/26 06:32:56;;;;;;;4.10;3.22;;;;;;;-1.15;100.00;99836.78;10472558;28;20402;-75
2023/02/26 06:37:58;;;;;;;3.88;3.28;;;;;;;-1.15;100.00;99836.78;10468448;28;20051;-73
2023/02/26 06:42:59;;;;;;;4.45;3.03;;;;;;;-1.17;100.00;99856.53;10467936;28;20040;-72
2023/02/26 06:48:01;;;;;;;4.80;2.78;;;;;;;-1.17;100.00;99865.13;10467734;28;20139;-72
2023/02/26 06:53:03;;;;;;;4.63;2.78;;;;;;;-1.03;100.00;99868.75;10469317;28;20037;-73
2023/02/26 06:58:08;;;;;;;3.42;3.10;;;;;;;-1.05;100.00;99883.34;10466577;28;20053;-74
2023/02/26 07:03:15;;;;;;;3.22;2.70;;;;;;;-1.06;100.00;99896.25;10466024;28;20037;-73
2023/02/26 07:08:17;;;;;;;;;;;;;;;-1.13;100.00;99894.41;10467864;28;20475;-72
2023/02/26 07:13:19;;;;;;;6.20;3.53;;;;;;;-0.95;100.00;99906.69;10465762;28;19921;-72
2023/02/26 07:18:20;;;;;;;3.88;2.47;;;;;;;-1.04;100.00;99916.03;10462834;28;20076;-72
2023/02/26 07:23:22;;;;;;;5.43;2.78;;;;;;;-0.92;100.00;99923.06;10445680;28;20077;-72
2023/02/26 07:28:24;;;;;;;3.20;2.10;;;;;;;-1.12;100.00;99929.69;10446281;28;20048;-73
2023/02/26 07:33:27;;;;;;;4.75;2.35;;;;;;;-0.94;100.00;99934.22;10463450;28;20123;-73
2023/02/26 07:38:28;;;;;;;4.70;2.35;;;;;;;-0.81;100.00;99943.84;10464663;28;20060;-73
2023/02/26 07:43:30;;;;;;;3.00;1.90;;;;;;;-0.86;100.00;99948.94;10467299;28;20044;-73
2023/02/26 07:48:32;;;;;;;3.47;2.05;;;;;;;-0.86;100.00;99954.09;10510982;22;20127;-73
2023/02/26 07:53:34;;;;;;;3.40;2.28;;;;;;;-0.78;100.00;99962.81;10503035;28;20044;-73
2023/02/26 07:58:36;;;;;;;3.58;1.77;;;;;;;-0.70;100.00;99969.81;10502828;28;20076;-73
2023/02/26 08:03:37;;;;;;;3.42;1.83;;;;;;;-0.78;100.00;99972.28;10503527;28;20041;-73
2023/02/26 08:08:39;;;;;;;2.33;1.60;;;;;;;-0.67;100.00;99977.56;10502301;28;20048;-73
2023/02/26 08:13:41;;;;;;;5.50;1.90;;;;;;;-0.54;100.00;99984.63;10501887;28;20067;-73
2023/02/26 08:18:42;;;;;;;2.28;1.48;;;;;;;-0.78;100.00;99995.50;10500594;28;20094;-72
2023/02/26 08:23:44;;;;;;;3.53;1.70;;;;;;;-0.78;100.00;99998.94;10502400;28;20051;-73
2023/02/26 08:28:47;;;;;;;3.63;1.73;;;;;;;-0.78;100.00;100008.41;10501888;28;20139;-73
2023/02/26 08:33:49;;;;;;;5.82;1.80;;;;;;;-0.64;100.00;100019.78;10501147;28;20415;-74
2023/02/26 08:38:51;;;;;;;2.47;1.60;;;;;;;-0.60;100.00;100024.13;10501245;28;20044;-74
2023/02/26 08:43:53;;;;;;;4.75;2.58;;;;;;;-0.47;100.00;100027.75;10500260;28;20409;-74
2023/02/26 08:48:54;;;;;;;6.30;2.42;;;;;;;-0.47;100.00;100044.97;10502407;28;20051;-74
2023/02/26 08:53:56;;;;;;;3.75;1.65;;;;;;;-0.56;100.00;100045.72;10500219;28;20045;-73
2023/02/26 08:58:58;;;;;;;4.63;1.85;;;;;;;-0.04;100.00;100052.38;10500560;28;20383;-74
2023/02/26 09:03:59;;;;;;;3.13;1.00;;;;;;;-0.01;98.74;100064.44;10500369;28;20040;-74
2023/02/26 09:09:02;;;;;;;2.85;1.95;;;;;;;-0.03;100.00;100064.44;10501721;28;20052;-73
2023/02/26 09:14:03;;;;;;;3.17;1.65;;;;;;;-0.11;100.00;100078.13;10499819;28;20054;-74
2023/02/26 09:19:06;;;;;;;3.28;1.38;;;;;;;0.06;100.00;100078.31;10499821;28;20047;-75
2023/02/26 09:24:08;;;;;;;2.20;1.15;;;;;;;0.02;99.69;100085.19;10498834;28;20082;-75
2023/02/26 09:29:10;;;;;;;2.97;1.30;;;;;;;-0.05;99.90;100106.59;10498680;28;20098;-74
2023/02/26 09:34:12;;;;;;;1.90;1.30;;;;;;;-0.20;99.52;100109.88;10499945;28;20436;-74
2023/02/26 09:39:14;;;;;;;2.95;1.40;;;;;;;-0.11;99.27;100122.91;10498445;28;20047;-74
2023/02/26 09:44:20;;;;;;;4.03;1.38;;;;;;;0.16;99.09;100121.50;10498092;28;20045;-75
2023/02/26 09:49:46;;;;;;;1.85;1.15;;;;;;;0.13;96.28;100122.34;10498214;28;20047;-74
2023/02/26 09:54:57;;;;;;;2.38;0.90;;;;;;;0.10;97.53;100132.66;10499388;28;20401;-74
2023/02/26 09:59:59;;;;;;;1.63;1.00;;;;;;;0.26;93.62;100141.44;10498085;28;20049;-74
2023/02/26 10:05:22;;;;;;;1.95;1.05;;;;;;;0.33;94.95;100147.56;10498502;28;20040;-74
2023/02/26 10:10:43;;;;;;;3.40;1.45;;;;;;;0.56;93.57;100150.41;10460782;28;20048;-74
2023/02/26 10:15:49;;;;;;;4.13;1.20;;;;;;;0.59;93.88;100163.38;10456071;28;20474;-75
2023/02/26 10:21:17;;;;;;;4.85;1.30;;;;;;;0.42;92.85;100174.38;10456589;28;20402;-74
2023/02/26 10:26:22;;;;;;;2.78;0.95;;;;;;;0.31;91.82;100183.75;10481855;28;20032;-74
2023/02/26 10:31:31;;;;;;;2.50;0.93;;;;;;;0.75;89.17;100185.94;10476356;28;20540;-73
2023/02/26 10:36:44;;;;;;;2.78;1.08;;;;;;;0.70;88.61;100201.41;10479810;28;20037;-74
2023/02/26 10:41:45;;;;;;;2.97;0.90;;;;;;;0.68;88.83;100200.56;10456078;28;20041;-73
2023/02/26 10:47:00;;;;;;;1.70;1.00;;;;;;;0.77;88.77;100209.28;10488817;28;20047;-73
2023/02/26 10:52:12;;;;;;;1.83;0.88;;;;;;;0.59;89.41;100209.94;10498106;28;20037;-73
2023/02/26 10:57:33;;;;;;;2.17;0.82;;;;;;;0.67;86.54;100211.75;10506969;28;20055;-73
2023/02/26 11:02:40;;;;;;;2.35;0.93;;;;;;;1.12;85.34;100220.84;10507427;28;20065;-71
2023/02/26 11:07:44;;;;;;;2.70;0.75;;;;;;;1.26;82.74;100218.38;10504495;28;20055;-72
2023/02/26 11:12:46;;;;;;;1.35;0.80;;;;;;;1.12;82.07;100220.84;10502321;28;20509;-71
2023/02/26 11:17:52;;;;;;;2.58;0.63;;;;;;;1.24;82.75;100214.91;10504198;28;20052;-71
2023/02/26 11:22:57;;;;;;;9.65;1.00;;;;;;;1.41;79.27;100222.81;10501901;28;20045;-71
2023/02/26 11:28:06;;;;;;;2.17;0.70;;;;;;;1.56;79.79;100220.34;10504938;28;20043;-71
2023/02/26 11:33:22;;;;;;;1.77;0.60;;;;;;;1.65;79.87;100224.75;10503218;28;20071;-71
2023/02/26 11:38:26;;;;;;;3.10;0.83;;;;;;;1.29;78.93;100228.78;10504133;28;20068;-71
2023/02/26 11:44:02;;;;;;;3.05;1.00;;;;;;;1.19;79.25;100227.78;10503205;28;20045;-71
2023/02/26 11:49:04;;;;;;;1.95;0.82;;;;;;;1.17;80.21;100233.81;10503830;28;20051;-71
2023/02/26 11:54:20;;;;;;;2.28;0.80;;;;;;;0.99;82.70;100227.63;10502852;28;20063;-72
2023/02/26 11:59:23;;;;;;;3.55;1.00;;;;;;;0.93;83.61;100231.84;10503033;28;20044;-72
2023/02/26 12:04:25;;;;;;;1.55;0.55;;;;;;;1.01;82.61;100237.97;10501547;28;20575;-71
2023/02/26 12:09:28;;;;;;;1.70;1.10;;;;;;;1.19;81.73;100235.56;10504409;28;20049;-71
2023/02/26 12:14:49;;;;;;;2.70;0.65;;;;;;;1.33;81.89;100232.22;10502200;28;20044;-72
2023/02/26 12:20:39;;;;;;;2.00;0.93;;;;;;;1.27;80.61;100238.22;10502609;28;20049;-72
2023/02/26 12:25:44;;;;;;;3.83;1.10;;;;;;;1.30;76.91;100250.34;10497857;28;20577;-72
2023/02/26 12:31:23;;;;;;;3.20;1.08;;;;;;;1.29;78.79;100240.84;10502888;28;20044;-71
2023/02/26 12:36:37;;;;;;;1.25;0.80;;;;;;;1.45;76.67;100247.88;10501490;28;20037;-71
2023/02/26 12:41:50;;;;;;;5.03;0.80;;;;;;;1.64;79.06;100252.38;10499978;28;20050;-72
2023/02/26 12:47:18;;;;;;;3.20;1.20;;;;;;;1.29;77.67;100261.56;10499110;28;20082;-72
2023/02/26 12:52:42;;;;;;;2.95;0.70;;;;;;;1.13;78.02;100266.59;10496831;28;20494;-73
2023/02/26 12:58:03;;;;;;;6.72;0.90;;;;;;;1.09;79.05;100267.41;10500878;28;20051;-72
2023/02/26 13:03:08;;;;;;;1.95;0.60;;;;;;;1.14;79.92;100268.31;10499597;28;20049;-71
2023/02/26 13:08:21;;;;;;;4.00;1.55;;;;;;;1.28;80.19;100265.84;10499370;28;20052;-72
2023/02/26 13:13:38;;;;;;;3.50;0.65;;;;;;;1.32;81.05;100280.56;10500824;28;20501;-72
2023/02/26 13:19:02;;;;;;;1.95;0.70;;;;;;;1.50;80.69;100283.31;10498990;28;20058;-72
2023/02/26 13:24:24;;;;;;;2.70;0.82;;;;;;;1.47;78.46;100280.72;10498165;28;20093;-72
2023/02/26 13:29:31;;;;;;;1.38;1.00;;;;;;;1.52;78.80;100281.63;10498779;28;20037;-72
2023/02/26 13:34:51;;;;;;;1.67;0.90;;;;;;;1.78;78.33;100288.75;10499835;28;20043;-72
2023/02/26 13:40:05;;;;;;;2.72;0.70;;;;;;;1.88;74.70;100294.88;10500090;28;20281;-71
2023/02/26 13:45:34;;;;;;;1.55;0.60;;;;;;;1.34;81.88;100316.88;10508336;22;20483;-75
2023/02/26 13:50:55;;;;;;;3.95;0.88;;;;;;;0.90;92.93;100319.84;10458091;28;20569;-75
2023/02/26 13:56:14;;;;;;;2.03;1.10;;;;;;;0.67;96.66;100324.72;10441451;28;20401;-75
2023/02/26 14:01:19;;;;;;;4.30;1.10;;;;;;;0.61;95.99;100312.56;10458669;28;20064;-75
2023/02/26 14:06:27;;;;;;;1.20;1.10;;;;;;;0.88;96.61;100321.50;10457933;28;20047;-75
2023/02/26 14:11:42;;;;;;;3.88;1.40;;;;;;;0.89;95.11;100318.09;10458457;28;20051;-75
2023/02/26 14:16:49;;;;;;;1.98;1.05;;;;;;;0.67;95.39;100314.38;10439821;28;20562;-75
2023/02/26 14:22:13;;;;;;;3.37;1.53;;;;;;;0.61;96.19;100317.72;10441172;28;20383;-76
2023/02/26 14:27:15;;;;;;;3.15;1.40;;;;;;;0.75;94.49;100318.81;10460854;28;20087;-74
2023/02/26 14:32:29;;;;;;;4.00;1.95;;;;;;;0.81;92.65;100305.06;10431913;28;20143;-75
2023/02/26 14:37:36;;;;;;;5.68;1.00;;;;;;;0.71;92.79;100324.78;10466418;28;20112;-75
2023/02/26 14:43:09;;;;;;;1.80;0.90;;;;;;;0.88;89.80;100324.09;10467197;28;20409;-75
2023/02/26 14:48:17;;;;;;;1.63;1.10;;;;;;;1.17;88.14;100321.88;10462078;28;20060;-75
2023/02/26 14:53:40;;;;;;;2.20;1.30;;;;;;;1.54;85.28;100324.81;10464500;28;20037;-75
2023/02/26 14:58:59;;;;;;;3.47;1.20;;;;;;;1.39;81.57;100333.31;10464306;28;20041;-75
2023/02/26 15:04:18;;;;;;;2.83;1.02;;;;;;;1.29;82.36;100339.25;10464142;28;20041;-74
2023/02/26 15:09:47;;;;;;;3.30;1.00;;;;;;;1.36;82.04;100338.44;10464966;28;20072;-75
2023/02/26 15:14:58;;;;;;;3.05;0.90;;;;;;;1.47;77.43;100344.63;10445837;28;20119;-74
2023/02/26 15:20:07;;;;;;;3.35;0.82;;;;;;;1.27;79.05;100347.84;10446735;28;20049;-74
2023/02/26 15:25:30;;;;;;;2.95;0.57;;;;;;;0.86;84.61;100352.56;10464426;28;20091;-75
2023/02/26 15:30:34;;;;;;;2.80;0.93;;;;;;;0.82;85.18;100360.28;10464150;28;20044;-75
2023/02/26 15:35:35;;;;;;;2.70;1.30;;;;;;;0.69;85.82;100367.00;10445764;28;20041;-76
2023/02/26 15:40:38;;;;;;;2.25;0.73;;;;;;;0.81;84.79;100366.31;10462218;28;20045;-75
2023/02/26 15:45:42;;;;;;;3.28;1.50;;;;;;;0.63;86.13;100375.56;10444454;28;20037;-76
2023/02/26 15:50:49;;;;;;;2.85;0.88;;;;;;;0.72;86.92;100380.84;10462692;28;20041;-76
2023/02/26 15:55:53;;;;;;;1.92;1.00;;;;;;;0.93;83.12;100376.78;10445152;28;20033;-76
2023/02/26 16:00:59;;;;;;;1.90;0.88;;;;;;;0.99;81.14;100377.75;10446048;28;20444;-76
2023/02/26 16:06:02;;;;;;;2.28;0.80;;;;;;;0.82;82.40;100386.16;10463362;28;20040;-75
2023/02/26 16:11:05;;;;;;;3.05;1.10;;;;;;;0.86;81.08;100403.47;10445999;28;20044;-75
2023/02/26 16:16:12;;;;;;;3.42;1.10;;;;;;;0.70;82.02;100397.19;10463694;28;20045;-75
2023/02/26 16:21:37;;;;;;;2.90;0.88;;;;;;;0.70;82.37;100402.38;10444850;28;20140;-75
2023/02/26 16:26:43;;;;;;;1.08;0.80;;;;;;;0.59;80.93;100406.53;10462762;28;20041;-75
2023/02/26 16:31:51;;;;;;;1.77;1.10;;;;;;;0.57;80.94;100405.63;10462380;28;20045;-75
2023/02/26 16:36:55;;;;;;;2.72;1.10;;;;;;;0.56;80.99;100417.69;10461756;28;20094;-75
2023/02/26 16:42:07;;;;;;;3.35;1.50;;;;;;;0.49;81.01;100415.88;10462528;28;20136;-75
2023/02/26 16:47:09;;;;;;;4.00;2.20;;;;;;;0.48;81.11;100430.50;10443324;28;20091;-75
2023/02/26 16:52:17;;;;;;;2.47;1.35;;;;;;;0.51;81.32;100434.88;10460079;28;20083;-75
2023/02/26 16:57:28;;;;;;;3.70;1.63;;;;;;;0.36;83.05;100445.84;10460355;28;20045;-75
2023/02/26 17:02:35;;;;;;;4.00;2.13;;;;;;;0.21;84.81;100455.91;10460599;28;20067;-74
2023/02/26 17:07:47;;;;;;;3.88;2.08;;;;;;;0.48;83.03;100466.72;10443388;28;20501;-76
2023/02/26 17:12:52;;;;;;;2.55;1.60;;;;;;;0.42;84.41;100476.97;10460891;28;20094;-74
2023/02/26 17:17:57;;;;;;;6.97;2.47;;;;;;;0.50;83.52;100480.56;10459192;28;20466;-75
2023/02/26 17:23:02;;;;;;;4.00;2.65;;;;;;;0.50;83.55;100487.44;10459295;28;20041;-74
2023/02/26 17:28:04;;;;;;;3.72;2.92;;;;;;;0.18;87.43;100492.09;10460850;28;20542;-75
2023/02/26 17:33:11;;;;;;;5.13;2.97;;;;;;;0.32;87.36;100500.94;10459655;28;20048;-75
2023/02/26 17:38:14;;;;;;;5.00;3.25;;;;;;;0.43;85.65;100516.63;10442701;28;20053;-74
2023/02/26 17:43:16;;;;;;;6.00;2.45;;;;;;;0.34;84.55;100514.75;10442621;28;20045;-75
2023/02/26 17:48:18;;;;;;;2.95;1.50;;;;;;;0.41;84.86;100523.50;10459759;28;20498;-76
2023/02/26 17:53:22;;;;;;;3.13;1.23;;;;;;;0.34;84.67;100534.56;10460439;28;20037;-76
2023/02/26 17:58:29;;;;;;;4.43;1.33;;;;;;;0.20;86.23;100539.50;10460091;28;20053;-76
2023/02/26 18:03:31;;;;;;;;;;;;;;;-0.07;87.67;100545.91;10459115;28;20047;-74
2023/02/26 18:08:33;;;;;;;2.95;1.65;;;;;;;-0.10;88.08;100545.84;10458361;28;20390;-74
2023/02/26 18:13:35;;;;;;;4.43;1.90;;;;;;;-0.23;89.50;100558.47;10457620;28;20051;-74
2023/02/26 18:18:38;;;;;;;4.72;2.92;;;;;;;-0.31;90.46;100558.31;10459727;28;20072;-76
2023/02/26 18:23:39;;;;;;;7.63;5.95;;;;;;;-0.12;88.79;100555.28;10459641;28;20414;-75
2023/02/26 18:28:42;;;;;;;8.90;6.68;;;;;;;-0.06;88.16;100570.03;10460588;28;20488;-75
2023/02/26 18:33:44;;;;;;;9.43;6.18;;;;;;;-0.01;85.89;100574.44;10442069;28;20051;-75
2023/02/26 18:38:46;;;;;;;6.72;5.65;;;;;;;-0.12;86.99;100582.84;10445842;28;20049;-75
2023/02/26 18:43:48;;;;;;;7.80;6.63;;;;;;;0.03;86.69;100590.00;10442918;28;20098;-75
2023/02/26 18:48:50;;;;;;;8.38;6.13;;;;;;;-0.30;91.07;100593.66;10458994;28;20041;-76
2023/02/26 18:53:53;;;;;;;6.38;5.05;;;;;;;-0.45;91.99;100593.31;10458567;28;20071;-76
2023/02/26 18:58:54;;;;;;;5.55;4.15;;;;;;;-0.52;91.68;100603.53;10459538;28;20045;-76
2023/02/26 19:03:56;;;;;;;5.10;3.80;;;;;;;-0.49;89.33;100620.78;10457760;28;20112;-75
2023/02/26 19:09:01;;;;;;;5.88;4.15;;;;;;;-0.35;88.99;100618.53;10439822;28;20041;-74
2023/02/26 19:14:03;;;;;;;6.70;2.80;;;;;;;-0.53;88.20;100629.34;10460117;28;20411;-74
2023/02/26 19:19:07;;;;;;;5.25;3.22;;;;;;;-0.41;86.56;100637.31;10464954;28;20041;-74
2023/02/26 19:24:12;;;;;;;6.30;3.05;;;;;;;-0.66;88.93;100633.34;10447949;28;20116;-75
2023/02/26 19:29:17;;;;;;;5.82;3.50;;;;;;;-0.52;87.35;100639.69;10463236;28;20482;-76
2023/02/26 19:34:19;;;;;;;8.35;6.35;;;;;;;-0.22;84.55;100655.81;10462475;28;20048;-74
2023/02/26 19:39:21;;;;;;;6.00;3.83;;;;;;;-0.24;83.40;100655.78;10444753;28;20059;-75
2023/02/26 19:44:26;;;;;;;4.25;2.55;;;;;;;-0.19;82.78;100664.50;10462515;28;20131;-75
2023/02/26 19:49:28;;;;;;;4.32;2.28;;;;;;;-0.56;85.57;100671.44;10463530;28;20037;-74
2023/02/26 19:54:30;;;;;;;3.90;2.50;;;;;;;-0.86;88.66;100673.28;10463375;28;20137;-74
2023/02/26 19:59:32;;;;;;;7.00;3.17;;;;;;;-0.99;89.65;100685.00;10447023;28;20441;-76
2023/02/26 20:04:35;;;;;;;5.22;4.10;;;;;;;-1.19;90.76;100684.50;10463884;28;20418;-75
2023/02/26 20:09:36;;;;;;;6.72;3.40;;;;;;;-1.32;88.13;100700.50;10446884;28;20045;-75
2023/02/26 20:14:38;;;;;;;5.13;2.25;;;;;;;-1.26;87.97;100703.22;10463792;28;20120;-75
2023/02/26 20:19:40;;;;;;;4.25;2.00;;;;;;;-1.12;85.69;100711.31;10463639;28;20404;-75
2023/02/26 20:24:42;;;;;;;3.17;1.60;;;;;;;-1.14;84.56;100721.63;10462924;28;20495;-75
2023/02/26 20:29:44;;;;;;;3.25;1.88;;;;;;;-1.17;82.63;100726.69;10445847;28;20122;-75
2023/02/26 20:34:46;;;;;;;2.65;1.92;;;;;;;-1.22;83.03;100725.69;10463374;28;20041;-75
2023/02/26 20:39:48;;;;;;;2.50;1.77;;;;;;;-1.16;82.79;100735.28;10463095;28;20048;-75
2023/02/26 20:44:50;;;;;;;2.72;1.58;;;;;;;-1.33;84.63;100727.09;10461761;23;20064;-72
2023/02/26 20:49:51;;;;;;;4.00;1.83;;;;;;;-1.38;83.01;100732.13;10500728;28;20036;-73
2023/02/26 20:54:53;;;;;;;2.45;1.80;;;;;;;-1.44;84.62;100731.09;10500961;28;20041;-72
2023/02/26 20:59:55;;;;;;;2.85;1.33;;;;;;;-1.45;85.00;100740.53;10499957;28;20051;-72
2023/02/26 21:04:56;;;;;;;2.38;1.40;;;;;;;-1.32;83.19;100740.06;10499934;28;20045;-73
2023/02/26 21:09:58;;;;;;;3.58;1.83;;;;;;;-1.37;82.89;100754.53;10499437;28;20386;-73
2023/02/26 21:15:00;;;;;;;2.72;1.63;;;;;;;-1.42;83.33;100756.06;10500071;28;20056;-72
2023/02/26 21:20:04;;;;;;;2.60;1.85;;;;;;;-1.45;83.09;100756.00;10499203;28;20074;-72
2023/02/26 21:25:07;;;;;;;4.38;1.40;;;;;;;-1.54;84.09;100756.63;10500277;28;20045;-72
2023/02/26 21:30:11;;;;;;;2.40;1.45;;;;;;;-1.53;84.02;100768.69;10498897;28;20177;-72
2023/02/26 21:35:14;;;;;;;3.63;1.70;;;;;;;-1.43;81.77;100769.81;10497323;28;20045;-72
2023/02/26 21:40:16;;;;;;;2.15;1.50;;;;;;;-1.44;81.56;100774.94;10500434;28;20040;-72
2023/02/26 21:45:18;;;;;;;3.03;1.45;;;;;;;-1.64;82.48;100772.66;10499322;28;20036;-74
2023/02/26 21:50:20;;;;;;;2.35;1.40;;;;;;;-1.49;81.38;100774.81;10498226;28;20053;-73
2023/02/26 21:55:22;;;;;;;4.05;1.73;;;;;;;-1.54;82.45;100774.66;10499475;28;20056;-73
2023/02/26 22:00:23;;;;;;;4.63;1.77;;;;;;;-1.32;80.55;100778.75;10502585;28;20044;-73
2023/02/26 22:05:26;;;;;;;3.55;1.83;;;;;;;-1.58;83.77;100785.72;10500109;28;20478;-73
2023/02/26 22:10:27;;;;;;;6.88;2.10;;;;;;;-1.49;82.79;100789.41;10500773;28;20048;-74
2023/02/26 22:15:29;;;;;;;2.42;1.20;;;;;;;-1.69;82.51;100794.81;10501735;28;20550;-74
2023/02/26 22:20:31;;;;;;;4.10;1.67;;;;;;;-1.25;80.33;100795.25;10499365;28;20059;-74
2023/02/26 22:25:32;;;;;;;3.00;2.08;;;;;;;-1.58;81.95;100798.63;10499496;28;20502;-73
2023/02/26 22:30:34;;;;;;;6.10;1.67;;;;;;;-1.58;82.76;100796.03;10499108;28;20532;-72
2023/02/26 22:35:36;;;;;;;3.58;1.50;;;;;;;-1.47;80.75;100804.06;10497634;28;20490;-72
2023/02/26 22:40:38;;;;;;;2.38;1.10;;;;;;;-1.82;82.04;100806.47;10499007;28;20054;-71
2023/02/26 22:45:39;;;;;;;3.95;2.13;;;;;;;-2.02;84.58;100810.16;10498511;28;20036;-72
2023/02/26 22:50:41;;;;;;;2.63;1.65;;;;;;;-2.04;84.00;100811.78;10503693;28;20037;-71
2023/02/26 22:55:43;;;;;;;2.50;1.73;;;;;;;-2.24;86.28;100811.16;10505125;28;20052;-71
2023/02/26 23:00:45;;;;;;;3.70;2.63;;;;;;;-2.11;87.73;100813.31;10503406;28;20052;-71
2023/02/26 23:05:47;;;;;;;6.85;2.45;;;;;;;-2.13;85.75;100812.38;10505003;28;20040;-71
2023/02/26 23:10:48;;;;;;;4.35;2.38;;;;;;;-2.31;87.50;100810.06;10505527;28;20044;-71
2023/02/26 23:15:50;;;;;;;3.42;2.00;;;;;;;-2.44;88.63;100807.06;10503798;28;20067;-71
2023/02/26 23:20:53;;;;;;;3.97;2.05;;;;;;;-2.28;88.24;100814.47;10503517;28;20048;-72
2023/02/26 23:25:54;;;;;;;4.05;2.10;;;;;;;-2.25;86.19;100822.31;10504178;28;20032;-70
2023/02/26 23:30:56;;;;;;;3.53;2.20;;;;;;;-2.26;86.04;100817.94;10505204;28;20048;-71
2023/02/26 23:35:58;;;;;;;3.78;1.80;;;;;;;-2.28;85.85;100815.34;10503543;28;20497;-71